sensor_id;sensor_type;location;lat;lon;timestamp;P1;durP1;ratioP1;P2;durP2;ratioP2
5821;SDS011;2937;48.562;8.022;2022-12-11T00:01:54;81.23;;;38.73;;
5821;SDS011;2937;48.562;8.022;2022-12-11T00:06:47;83.80;;;38.40;;
5821;SDS011;2937;48.562;8.022;2022-12-11T00:11:40;76.30;;;37.93;;
5821;SDS011;2937;48.562;8.022;2022-12-11T00:16:34;88.20;;;38.87;;
5821;SDS011;2937;48.562;8.022;2022-12-11T00:21:27;90.80;;;38.37;;
5821;SDS011;2937;48.562;8.022;2022-12-11T00:26:20;80.20;;;37.10;;
5821;SDS011;2937;48.562;8.022;2022-12-11T00:31:14;68.07;;;32.80;;
5821;SDS011;2937;48.562;8.022;2022-12-11T00:36:11;67.20;;;31.30;;
5821;SDS011;2937;48.562;8.022;2022-12-11T00:41:04;75.63;;;33.33;;
5821;SDS011;2937;48.562;8.022;2022-12-11T00:45:58;70.37;;;29.77;;
5821;SDS011;2937;48.562;8.022;2022-12-11T00:50:51;74.17;;;32.23;;
5821;SDS011;2937;48.562;8.022;2022-12-11T00:55:47;67.80;;;29.40;;
5821;SDS011;2937;48.562;8.022;2022-12-11T01:00:45;70.63;;;34.07;;
5821;SDS011;2937;48.562;8.022;2022-12-11T01:05:40;73.60;;;34.00;;
5821;SDS011;2937;48.562;8.022;2022-12-11T01:10:33;74.73;;;31.13;;
5821;SDS011;2937;48.562;8.022;2022-12-11T01:15:28;74.57;;;32.33;;
5821;SDS011;2937;48.562;8.022;2022-12-11T01:20:22;77.20;;;32.30;;
5821;SDS011;2937;48.562;8.022;2022-12-11T01:25:15;72.13;;;29.87;;
5821;SDS011;2937;48.562;8.022;2022-12-11T01:30:09;73.13;;;32.63;;
5821;SDS011;2937;48.562;8.022;2022-12-11T01:35:05;80.77;;;32.70;;
5821;SDS011;2937;48.562;8.022;2022-12-11T01:39:59;50.57;;;21.63;;
5821;SDS011;2937;48.562;8.022;2022-12-11T01:50:19;67.13;;;29.17;;
5821;SDS011;2937;48.562;8.022;2022-12-11T01:55:12;82.87;;;32.87;;
5821;SDS011;2937;48.562;8.022;2022-12-11T02:00:05;73.73;;;27.80;;
5821;SDS011;2937;48.562;8.022;2022-12-11T02:05:03;67.77;;;27.30;;
5821;SDS011;2937;48.562;8.022;2022-12-11T02:09:58;74.90;;;30.13;;
5821;SDS011;2937;48.562;8.022;2022-12-11T02:14:52;74.07;;;28.37;;
5821;SDS011;2937;48.562;8.022;2022-12-11T02:19:51;72.23;;;29.97;;
5821;SDS011;2937;48.562;8.022;2022-12-11T02:24:49;68.83;;;31.30;;
5821;SDS011;2937;48.562;8.022;2022-12-11T02:29:47;74.03;;;29.87;;
5821;SDS011;2937;48.562;8.022;2022-12-11T02:34:41;65.03;;;28.10;;
5821;SDS011;2937;48.562;8.022;2022-12-11T02:39:37;72.40;;;29.90;;
5821;SDS011;2937;48.562;8.022;2022-12-11T02:44:32;71.67;;;29.90;;
5821;SDS011;2937;48.562;8.022;2022-12-11T02:49:27;75.07;;;31.07;;
5821;SDS011;2937;48.562;8.022;2022-12-11T02:54:21;73.97;;;28.53;;
5821;SDS011;2937;48.562;8.022;2022-12-11T02:59:17;67.60;;;27.90;;
5821;SDS011;2937;48.562;8.022;2022-12-11T03:04:21;70.90;;;28.83;;
5821;SDS011;2937;48.562;8.022;2022-12-11T03:09:16;67.50;;;27.90;;
5821;SDS011;2937;48.562;8.022;2022-12-11T03:14:09;73.03;;;31.00;;
5821;SDS011;2937;48.562;8.022;2022-12-11T03:19:06;67.93;;;29.20;;
5821;SDS011;2937;48.562;8.022;2022-12-11T03:24:02;63.17;;;26.93;;
5821;SDS011;2937;48.562;8.022;2022-12-11T03:28:59;73.33;;;29.40;;
5821;SDS011;2937;48.562;8.022;2022-12-11T03:33:54;69.40;;;28.23;;
5821;SDS011;2937;48.562;8.022;2022-12-11T03:38:49;65.93;;;27.97;;
5821;SDS011;2937;48.562;8.022;2022-12-11T03:43:44;65.60;;;27.87;;
5821;SDS011;2937;48.562;8.022;2022-12-11T03:48:40;71.40;;;29.33;;
5821;SDS011;2937;48.562;8.022;2022-12-11T03:53:34;73.43;;;27.60;;
5821;SDS011;2937;48.562;8.022;2022-12-11T03:58:27;71.07;;;29.20;;
5821;SDS011;2937;48.562;8.022;2022-12-11T04:03:20;66.60;;;26.70;;
5821;SDS011;2937;48.562;8.022;2022-12-11T04:08:14;78.00;;;28.03;;
5821;SDS011;2937;48.562;8.022;2022-12-11T04:13:08;69.47;;;27.93;;
5821;SDS011;2937;48.562;8.022;2022-12-11T04:18:01;78.33;;;28.67;;
5821;SDS011;2937;48.562;8.022;2022-12-11T04:23:11;73.87;;;26.87;;
5821;SDS011;2937;48.562;8.022;2022-12-11T04:28:23;63.50;;;26.80;;
5821;SDS011;2937;48.562;8.022;2022-12-11T04:33:16;72.80;;;29.77;;
5821;SDS011;2937;48.562;8.022;2022-12-11T04:38:09;70.37;;;27.43;;
5821;SDS011;2937;48.562;8.022;2022-12-11T04:43:02;75.13;;;29.70;;
5821;SDS011;2937;48.562;8.022;2022-12-11T04:47:56;66.80;;;27.17;;
5821;SDS011;2937;48.562;8.022;2022-12-11T04:52:49;72.63;;;26.60;;
5821;SDS011;2937;48.562;8.022;2022-12-11T04:57:45;65.13;;;26.50;;
5821;SDS011;2937;48.562;8.022;2022-12-11T05:02:38;73.60;;;27.83;;
5821;SDS011;2937;48.562;8.022;2022-12-11T05:07:33;68.63;;;28.73;;
5821;SDS011;2937;48.562;8.022;2022-12-11T05:12:26;72.03;;;29.43;;
5821;SDS011;2937;48.562;8.022;2022-12-11T05:17:19;75.30;;;28.83;;
5821;SDS011;2937;48.562;8.022;2022-12-11T05:22:11;73.03;;;28.70;;
5821;SDS011;2937;48.562;8.022;2022-12-11T05:27:05;76.37;;;30.00;;
5821;SDS011;2937;48.562;8.022;2022-12-11T05:31:58;79.13;;;27.43;;
5821;SDS011;2937;48.562;8.022;2022-12-11T05:36:51;77.20;;;29.30;;
5821;SDS011;2937;48.562;8.022;2022-12-11T05:41:44;77.53;;;29.20;;
5821;SDS011;2937;48.562;8.022;2022-12-11T05:46:38;74.43;;;28.50;;
5821;SDS011;2937;48.562;8.022;2022-12-11T05:51:31;82.70;;;31.13;;
5821;SDS011;2937;48.562;8.022;2022-12-11T05:56:26;78.27;;;31.10;;
5821;SDS011;2937;48.562;8.022;2022-12-11T06:01:19;87.97;;;29.27;;
5821;SDS011;2937;48.562;8.022;2022-12-11T06:06:14;77.20;;;30.77;;
5821;SDS011;2937;48.562;8.022;2022-12-11T06:11:06;90.17;;;30.93;;
5821;SDS011;2937;48.562;8.022;2022-12-11T06:15:59;87.83;;;31.27;;
5821;SDS011;2937;48.562;8.022;2022-12-11T06:20:53;77.47;;;29.00;;
5821;SDS011;2937;48.562;8.022;2022-12-11T06:25:47;81.20;;;29.40;;
5821;SDS011;2937;48.562;8.022;2022-12-11T06:30:39;96.67;;;32.83;;
5821;SDS011;2937;48.562;8.022;2022-12-11T06:35:32;99.00;;;32.87;;
5821;SDS011;2937;48.562;8.022;2022-12-11T06:40:31;98.30;;;34.03;;
5821;SDS011;2937;48.562;8.022;2022-12-11T06:45:26;98.60;;;32.53;;
5821;SDS011;2937;48.562;8.022;2022-12-11T06:50:18;105.07;;;34.80;;
5821;SDS011;2937;48.562;8.022;2022-12-11T06:55:11;94.17;;;32.40;;
5821;SDS011;2937;48.562;8.022;2022-12-11T07:00:05;105.43;;;35.77;;
5821;SDS011;2937;48.562;8.022;2022-12-11T07:04:59;98.27;;;34.80;;
5821;SDS011;2937;48.562;8.022;2022-12-11T07:09:51;104.13;;;35.57;;
5821;SDS011;2937;48.562;8.022;2022-12-11T07:14:44;107.97;;;33.90;;
5821;SDS011;2937;48.562;8.022;2022-12-11T07:19:37;102.30;;;35.40;;
5821;SDS011;2937;48.562;8.022;2022-12-11T07:24:32;106.53;;;37.40;;
5821;SDS011;2937;48.562;8.022;2022-12-11T07:29:25;116.43;;;37.77;;
5821;SDS011;2937;48.562;8.022;2022-12-11T07:34:17;106.33;;;36.73;;
5821;SDS011;2937;48.562;8.022;2022-12-11T07:39:10;113.30;;;38.10;;
5821;SDS011;2937;48.562;8.022;2022-12-11T07:44:04;109.50;;;36.60;;
5821;SDS011;2937;48.562;8.022;2022-12-11T07:48:57;111.83;;;36.00;;
5821;SDS011;2937;48.562;8.022;2022-12-11T07:53:51;97.23;;;36.97;;
5821;SDS011;2937;48.562;8.022;2022-12-11T07:58:44;122.00;;;37.30;;
5821;SDS011;2937;48.562;8.022;2022-12-11T08:03:38;112.23;;;36.47;;
5821;SDS011;2937;48.562;8.022;2022-12-11T08:08:31;89.10;;;34.30;;
5821;SDS011;2937;48.562;8.022;2022-12-11T08:13:24;92.47;;;35.90;;
5821;SDS011;2937;48.562;8.022;2022-12-11T08:18:16;94.60;;;35.73;;
5821;SDS011;2937;48.562;8.022;2022-12-11T08:23:11;68.10;;;30.67;;
5821;SDS011;2937;48.562;8.022;2022-12-11T08:28:03;72.40;;;33.10;;
5821;SDS011;2937;48.562;8.022;2022-12-11T08:32:56;63.80;;;30.47;;
5821;SDS011;2937;48.562;8.022;2022-12-11T08:37:50;57.33;;;29.50;;
5821;SDS011;2937;48.562;8.022;2022-12-11T08:42:44;52.43;;;28.40;;
5821;SDS011;2937;48.562;8.022;2022-12-11T08:47:37;53.50;;;27.77;;
5821;SDS011;2937;48.562;8.022;2022-12-11T08:52:33;56.50;;;28.07;;
5821;SDS011;2937;48.562;8.022;2022-12-11T08:57:26;46.10;;;23.40;;
5821;SDS011;2937;48.562;8.022;2022-12-11T09:02:20;52.27;;;26.50;;
5821;SDS011;2937;48.562;8.022;2022-12-11T09:07:14;49.60;;;26.40;;
5821;SDS011;2937;48.562;8.022;2022-12-11T09:12:07;52.33;;;26.63;;
5821;SDS011;2937;48.562;8.022;2022-12-11T09:17:00;53.93;;;27.63;;
5821;SDS011;2937;48.562;8.022;2022-12-11T09:21:54;50.43;;;27.73;;
5821;SDS011;2937;48.562;8.022;2022-12-11T09:26:47;49.10;;;27.90;;
5821;SDS011;2937;48.562;8.022;2022-12-11T09:31:40;49.27;;;26.33;;
5821;SDS011;2937;48.562;8.022;2022-12-11T09:36:33;59.53;;;33.60;;
5821;SDS011;2937;48.562;8.022;2022-12-11T09:41:37;51.70;;;26.73;;
5821;SDS011;2937;48.562;8.022;2022-12-11T09:46:30;56.47;;;31.80;;
5821;SDS011;2937;48.562;8.022;2022-12-11T09:51:25;64.37;;;35.53;;
5821;SDS011;2937;48.562;8.022;2022-12-11T09:56:20;45.87;;;26.83;;
5821;SDS011;2937;48.562;8.022;2022-12-11T10:01:16;51.37;;;28.63;;
5821;SDS011;2937;48.562;8.022;2022-12-11T10:06:11;47.90;;;27.70;;
5821;SDS011;2937;48.562;8.022;2022-12-11T10:11:12;52.10;;;30.30;;
5821;SDS011;2937;48.562;8.022;2022-12-11T10:16:11;48.90;;;27.57;;
5821;SDS011;2937;48.562;8.022;2022-12-11T10:21:07;46.83;;;27.00;;
5821;SDS011;2937;48.562;8.022;2022-12-11T10:26:02;53.23;;;27.47;;
5821;SDS011;2937;48.562;8.022;2022-12-11T10:30:57;52.37;;;28.23;;
5821;SDS011;2937;48.562;8.022;2022-12-11T10:35:52;45.80;;;26.67;;
5821;SDS011;2937;48.562;8.022;2022-12-11T10:40:48;59.03;;;33.50;;
5821;SDS011;2937;48.562;8.022;2022-12-11T10:45:48;47.63;;;26.10;;
5821;SDS011;2937;48.562;8.022;2022-12-11T10:50:41;48.70;;;27.40;;
5821;SDS011;2937;48.562;8.022;2022-12-11T10:55:37;51.47;;;29.57;;
5821;SDS011;2937;48.562;8.022;2022-12-11T11:00:34;49.33;;;27.47;;
5821;SDS011;2937;48.562;8.022;2022-12-11T11:05:28;47.20;;;27.07;;
5821;SDS011;2937;48.562;8.022;2022-12-11T11:10:22;53.00;;;28.47;;
5821;SDS011;2937;48.562;8.022;2022-12-11T11:15:17;48.70;;;27.70;;
5821;SDS011;2937;48.562;8.022;2022-12-11T11:20:15;51.60;;;29.67;;
5821;SDS011;2937;48.562;8.022;2022-12-11T11:25:14;48.87;;;29.30;;
5821;SDS011;2937;48.562;8.022;2022-12-11T11:30:15;51.73;;;29.10;;
5821;SDS011;2937;48.562;8.022;2022-12-11T11:35:15;47.80;;;26.60;;
5821;SDS011;2937;48.562;8.022;2022-12-11T11:40:10;45.17;;;27.03;;
5821;SDS011;2937;48.562;8.022;2022-12-11T11:45:13;48.20;;;26.40;;
5821;SDS011;2937;48.562;8.022;2022-12-11T11:50:10;48.13;;;26.80;;
5821;SDS011;2937;48.562;8.022;2022-12-11T11:55:08;44.50;;;26.73;;
5821;SDS011;2937;48.562;8.022;2022-12-11T12:00:17;49.67;;;27.80;;
5821;SDS011;2937;48.562;8.022;2022-12-11T12:05:11;46.30;;;26.80;;
5821;SDS011;2937;48.562;8.022;2022-12-11T12:10:09;49.33;;;27.90;;
5821;SDS011;2937;48.562;8.022;2022-12-11T12:15:14;44.80;;;24.93;;
5821;SDS011;2937;48.562;8.022;2022-12-11T12:20:12;46.17;;;26.00;;
5821;SDS011;2937;48.562;8.022;2022-12-11T12:25:13;47.80;;;27.40;;
5821;SDS011;2937;48.562;8.022;2022-12-11T12:30:08;45.87;;;26.33;;
5821;SDS011;2937;48.562;8.022;2022-12-11T12:35:07;46.53;;;27.27;;
5821;SDS011;2937;48.562;8.022;2022-12-11T12:40:02;44.03;;;26.97;;
5821;SDS011;2937;48.562;8.022;2022-12-11T12:45:06;51.00;;;28.57;;
5821;SDS011;2937;48.562;8.022;2022-12-11T12:50:03;49.60;;;28.07;;
5821;SDS011;2937;48.562;8.022;2022-12-11T12:54:56;51.20;;;27.60;;
5821;SDS011;2937;48.562;8.022;2022-12-11T13:00:08;47.53;;;26.60;;
5821;SDS011;2937;48.562;8.022;2022-12-11T13:05:05;47.10;;;27.53;;
5821;SDS011;2937;48.562;8.022;2022-12-11T13:10:03;48.87;;;27.40;;
5821;SDS011;2937;48.562;8.022;2022-12-11T13:14:57;58.30;;;33.70;;
5821;SDS011;2937;48.562;8.022;2022-12-11T13:20:05;56.27;;;29.90;;
5821;SDS011;2937;48.562;8.022;2022-12-11T13:25:01;45.20;;;26.57;;
5821;SDS011;2937;48.562;8.022;2022-12-11T13:30:18;50.10;;;27.80;;
5821;SDS011;2937;48.562;8.022;2022-12-11T13:35:14;50.60;;;29.30;;
5821;SDS011;2937;48.562;8.022;2022-12-11T13:40:13;52.60;;;28.37;;
5821;SDS011;2937;48.562;8.022;2022-12-11T13:45:14;54.17;;;29.63;;
5821;SDS011;2937;48.562;8.022;2022-12-11T13:50:12;57.23;;;30.10;;
5821;SDS011;2937;48.562;8.022;2022-12-11T13:55:13;52.00;;;28.50;;
5821;SDS011;2937;48.562;8.022;2022-12-11T14:00:20;53.00;;;28.90;;
5821;SDS011;2937;48.562;8.022;2022-12-11T14:05:13;56.37;;;31.03;;
5821;SDS011;2937;48.562;8.022;2022-12-11T14:10:07;54.67;;;29.03;;
5821;SDS011;2937;48.562;8.022;2022-12-11T14:15:03;51.83;;;26.90;;
5821;SDS011;2937;48.562;8.022;2022-12-11T14:19:57;54.83;;;26.93;;
5821;SDS011;2937;48.562;8.022;2022-12-11T14:24:51;53.83;;;27.03;;
5821;SDS011;2937;48.562;8.022;2022-12-11T14:29:44;54.37;;;28.07;;
5821;SDS011;2937;48.562;8.022;2022-12-11T14:34:40;55.17;;;28.47;;
5821;SDS011;2937;48.562;8.022;2022-12-11T14:39:36;51.43;;;26.40;;
5821;SDS011;2937;48.562;8.022;2022-12-11T14:44:30;57.70;;;25.83;;
5821;SDS011;2937;48.562;8.022;2022-12-11T14:49:25;58.43;;;30.83;;
5821;SDS011;2937;48.562;8.022;2022-12-11T14:54:23;63.90;;;33.43;;
5821;SDS011;2937;48.562;8.022;2022-12-11T14:59:18;55.87;;;27.43;;
5821;SDS011;2937;48.562;8.022;2022-12-11T15:04:21;52.20;;;29.00;;
5821;SDS011;2937;48.562;8.022;2022-12-11T15:09:18;55.93;;;28.80;;
5821;SDS011;2937;48.562;8.022;2022-12-11T15:14:12;61.67;;;29.40;;
5821;SDS011;2937;48.562;8.022;2022-12-11T15:19:05;51.20;;;27.30;;
5821;SDS011;2937;48.562;8.022;2022-12-11T15:23:59;58.27;;;28.50;;
5821;SDS011;2937;48.562;8.022;2022-12-11T15:28:57;51.47;;;27.23;;
5821;SDS011;2937;48.562;8.022;2022-12-11T15:33:52;62.67;;;30.67;;
5821;SDS011;2937;48.562;8.022;2022-12-11T15:38:45;54.70;;;27.27;;
5821;SDS011;2937;48.562;8.022;2022-12-11T15:43:37;53.97;;;26.43;;
5821;SDS011;2937;48.562;8.022;2022-12-11T15:48:30;59.47;;;28.60;;
5821;SDS011;2937;48.562;8.022;2022-12-11T15:53:24;58.10;;;28.40;;
5821;SDS011;2937;48.562;8.022;2022-12-11T15:58:17;56.13;;;29.57;;
5821;SDS011;2937;48.562;8.022;2022-12-11T16:03:10;60.73;;;29.13;;
5821;SDS011;2937;48.562;8.022;2022-12-11T16:08:04;56.37;;;28.60;;
5821;SDS011;2937;48.562;8.022;2022-12-11T16:12:58;59.00;;;28.70;;
5821;SDS011;2937;48.562;8.022;2022-12-11T16:17:59;55.47;;;27.60;;
5821;SDS011;2937;48.562;8.022;2022-12-11T16:22:52;72.67;;;36.37;;
5821;SDS011;2937;48.562;8.022;2022-12-11T16:27:44;80.60;;;39.00;;
5821;SDS011;2937;48.562;8.022;2022-12-11T16:32:38;66.57;;;30.93;;
5821;SDS011;2937;48.562;8.022;2022-12-11T16:37:31;68.30;;;35.30;;
5821;SDS011;2937;48.562;8.022;2022-12-11T16:42:23;64.30;;;31.60;;
5821;SDS011;2937;48.562;8.022;2022-12-11T16:47:16;59.67;;;28.53;;
5821;SDS011;2937;48.562;8.022;2022-12-11T16:52:10;65.47;;;29.43;;
5821;SDS011;2937;48.562;8.022;2022-12-11T16:57:09;58.47;;;27.60;;
5821;SDS011;2937;48.562;8.022;2022-12-11T17:02:01;64.97;;;30.60;;
5821;SDS011;2937;48.562;8.022;2022-12-11T17:06:54;57.47;;;30.00;;
5821;SDS011;2937;48.562;8.022;2022-12-11T17:11:48;60.53;;;30.70;;
5821;SDS011;2937;48.562;8.022;2022-12-11T17:16:40;63.47;;;31.37;;
5821;SDS011;2937;48.562;8.022;2022-12-11T17:21:33;52.90;;;28.10;;
5821;SDS011;2937;48.562;8.022;2022-12-11T17:26:26;62.97;;;30.37;;
5821;SDS011;2937;48.562;8.022;2022-12-11T17:31:20;55.40;;;28.13;;
5821;SDS011;2937;48.562;8.022;2022-12-11T17:36:14;60.67;;;29.50;;
5821;SDS011;2937;48.562;8.022;2022-12-11T17:41:07;58.27;;;25.23;;
5821;SDS011;2937;48.562;8.022;2022-12-11T17:46:04;61.00;;;27.93;;
5821;SDS011;2937;48.562;8.022;2022-12-11T17:51:01;61.97;;;28.37;;
5821;SDS011;2937;48.562;8.022;2022-12-11T17:55:57;61.80;;;31.60;;
5821;SDS011;2937;48.562;8.022;2022-12-11T18:00:51;54.97;;;26.43;;
5821;SDS011;2937;48.562;8.022;2022-12-11T18:05:45;49.90;;;25.70;;
5821;SDS011;2937;48.562;8.022;2022-12-11T18:10:39;62.10;;;28.40;;
5821;SDS011;2937;48.562;8.022;2022-12-11T18:15:32;60.20;;;29.80;;
5821;SDS011;2937;48.562;8.022;2022-12-11T18:20:24;60.27;;;30.37;;
5821;SDS011;2937;48.562;8.022;2022-12-11T18:25:17;60.07;;;30.80;;
5821;SDS011;2937;48.562;8.022;2022-12-11T18:30:12;68.73;;;32.00;;
5821;SDS011;2937;48.562;8.022;2022-12-11T18:35:05;64.00;;;29.57;;
5821;SDS011;2937;48.562;8.022;2022-12-11T18:39:58;64.97;;;30.70;;
5821;SDS011;2937;48.562;8.022;2022-12-11T18:44:51;69.33;;;31.10;;
5821;SDS011;2937;48.562;8.022;2022-12-11T18:49:45;84.37;;;39.27;;
5821;SDS011;2937;48.562;8.022;2022-12-11T18:54:37;73.57;;;33.90;;
5821;SDS011;2937;48.562;8.022;2022-12-11T18:59:30;75.17;;;35.97;;
5821;SDS011;2937;48.562;8.022;2022-12-11T19:04:23;73.60;;;33.37;;
5821;SDS011;2937;48.562;8.022;2022-12-11T19:09:16;262.53;;;96.70;;
5821;SDS011;2937;48.562;8.022;2022-12-11T19:14:09;87.53;;;36.57;;
5821;SDS011;2937;48.562;8.022;2022-12-11T19:19:04;127.80;;;55.30;;
5821;SDS011;2937;48.562;8.022;2022-12-11T19:23:57;133.33;;;59.03;;
5821;SDS011;2937;48.562;8.022;2022-12-11T19:28:51;98.90;;;42.50;;
5821;SDS011;2937;48.562;8.022;2022-12-11T19:33:44;104.10;;;40.37;;
5821;SDS011;2937;48.562;8.022;2022-12-11T19:38:39;90.93;;;38.67;;
5821;SDS011;2937;48.562;8.022;2022-12-11T19:43:32;97.73;;;41.77;;
5821;SDS011;2937;48.562;8.022;2022-12-11T19:48:26;99.80;;;36.90;;
5821;SDS011;2937;48.562;8.022;2022-12-11T19:53:18;101.63;;;36.70;;
5821;SDS011;2937;48.562;8.022;2022-12-11T19:58:11;89.97;;;37.30;;
5821;SDS011;2937;48.562;8.022;2022-12-11T20:03:03;93.87;;;37.73;;
5821;SDS011;2937;48.562;8.022;2022-12-11T20:07:58;89.80;;;36.30;;
5821;SDS011;2937;48.562;8.022;2022-12-11T20:13:10;87.73;;;37.27;;
5821;SDS011;2937;48.562;8.022;2022-12-11T20:18:03;92.13;;;38.87;;
5821;SDS011;2937;48.562;8.022;2022-12-11T20:22:57;100.53;;;39.77;;
5821;SDS011;2937;48.562;8.022;2022-12-11T20:27:50;90.13;;;39.17;;
5821;SDS011;2937;48.562;8.022;2022-12-11T20:32:43;87.77;;;37.63;;
5821;SDS011;2937;48.562;8.022;2022-12-11T20:37:36;98.60;;;37.60;;
5821;SDS011;2937;48.562;8.022;2022-12-11T20:42:30;100.77;;;40.03;;
5821;SDS011;2937;48.562;8.022;2022-12-11T20:47:23;92.87;;;36.43;;
5821;SDS011;2937;48.562;8.022;2022-12-11T20:52:16;76.83;;;32.53;;
5821;SDS011;2937;48.562;8.022;2022-12-11T20:57:09;72.20;;;32.70;;
5821;SDS011;2937;48.562;8.022;2022-12-11T21:02:03;70.33;;;30.00;;
5821;SDS011;2937;48.562;8.022;2022-12-11T21:06:56;75.70;;;33.80;;
5821;SDS011;2937;48.562;8.022;2022-12-11T21:11:50;68.30;;;31.40;;
5821;SDS011;2937;48.562;8.022;2022-12-11T21:16:43;68.43;;;30.50;;
5821;SDS011;2937;48.562;8.022;2022-12-11T21:21:37;62.10;;;30.13;;
5821;SDS011;2937;48.562;8.022;2022-12-11T21:26:31;68.07;;;31.13;;
5821;SDS011;2937;48.562;8.022;2022-12-11T21:31:23;62.83;;;27.93;;
5821;SDS011;2937;48.562;8.022;2022-12-11T21:36:17;57.80;;;27.80;;
5821;SDS011;2937;48.562;8.022;2022-12-11T21:41:12;67.37;;;28.43;;
5821;SDS011;2937;48.562;8.022;2022-12-11T21:46:09;65.57;;;28.10;;
5821;SDS011;2937;48.562;8.022;2022-12-11T21:51:05;59.67;;;27.30;;
5821;SDS011;2937;48.562;8.022;2022-12-11T21:55:58;70.23;;;30.00;;
5821;SDS011;2937;48.562;8.022;2022-12-11T22:00:52;67.73;;;30.03;;
5821;SDS011;2937;48.562;8.022;2022-12-11T22:05:45;62.70;;;28.57;;
5821;SDS011;2937;48.562;8.022;2022-12-11T22:10:37;63.20;;;29.00;;
5821;SDS011;2937;48.562;8.022;2022-12-11T22:15:30;59.97;;;27.70;;
5821;SDS011;2937;48.562;8.022;2022-12-11T22:20:24;50.07;;;24.57;;
5821;SDS011;2937;48.562;8.022;2022-12-11T22:25:16;54.60;;;25.60;;
5821;SDS011;2937;48.562;8.022;2022-12-11T22:30:09;53.63;;;25.80;;
5821;SDS011;2937;48.562;8.022;2022-12-11T22:35:02;49.90;;;24.97;;
5821;SDS011;2937;48.562;8.022;2022-12-11T22:39:56;53.50;;;25.70;;
5821;SDS011;2937;48.562;8.022;2022-12-11T22:44:49;54.27;;;24.23;;
5821;SDS011;2937;48.562;8.022;2022-12-11T22:49:42;56.57;;;25.90;;
5821;SDS011;2937;48.562;8.022;2022-12-11T22:54:36;61.87;;;27.70;;
5821;SDS011;2937;48.562;8.022;2022-12-11T22:59:30;55.70;;;28.33;;
5821;SDS011;2937;48.562;8.022;2022-12-11T23:04:22;57.37;;;27.10;;
5821;SDS011;2937;48.562;8.022;2022-12-11T23:09:15;61.10;;;26.87;;
5821;SDS011;2937;48.562;8.022;2022-12-11T23:14:10;76.70;;;30.70;;
5821;SDS011;2937;48.562;8.022;2022-12-11T23:19:05;65.60;;;29.00;;
5821;SDS011;2937;48.562;8.022;2022-12-11T23:23:58;65.93;;;29.30;;
5821;SDS011;2937;48.562;8.022;2022-12-11T23:28:52;65.03;;;29.80;;
5821;SDS011;2937;48.562;8.022;2022-12-11T23:33:44;71.30;;;28.37;;
5821;SDS011;2937;48.562;8.022;2022-12-11T23:38:39;62.00;;;28.03;;
5821;SDS011;2937;48.562;8.022;2022-12-11T23:43:32;59.00;;;25.53;;
5821;SDS011;2937;48.562;8.022;2022-12-11T23:48:25;63.20;;;23.83;;
5821;SDS011;2937;48.562;8.022;2022-12-11T23:53:17;52.57;;;24.50;;
5821;SDS011;2937;48.562;8.022;2022-12-11T23:58:11;54.67;;;23.37;;
